Edgar, Wisconsin
Current Conditions -  °F | °C
As of 1:54 PM on Monday 26 Jan 2015 (Local Time) from KAUW Reporting Station
Light Snow Light Snow  
Wind Chill:   Ceiling: 1300
Heat Index: 19°   Visibility: 4mi
Dew Point: 16°   Wind: 8mph
Humidity: 88%   Direction: 160°SSE
Pressure: 29.74"   Gusts: NA
Location:  44.93°N, 89.96°W
Report Text: KAUW 261954Z AUTO 16007KT 4SM -SN BR OVC013 M07/M09 A2974 RMK AO2 SLP097 P0002 T10721089
Loading
Personal Weather Stations






























Interactive Weather Map New forecast layout! Learn more

10-Day Weather Forecast

Advertisements
Track Severe Weather on mobile